»·PEaware :: N56FR KCRQ-KLAX

N56FR :: KCRQ-KLAX

FLIGHT INFORMATION

Flight Status: Arrived
Operator: Privately registered:
United States
More flights under this callsign
Pilot: Mark L. (17179)
Aircraft: BEECH AIRCRAFT BARON
(BE58)
More flights by this aircraft type
Origin: KCRQ McClellan-Palomar
United States
Destination: KLAX Los Angeles Intl
United States
More flights between these airports :: More routes between these airports
Route: OCN V23 SLI
File this flight plan on PilotEdge
Remarks:
Altitude:
(Current/Filed)
6,000ft
Speed:
(Current/Filed)
180kts
Departed: 27-Nov-18 10:55 AM
Arrived: 27-Nov-18 11:27 AM
Distance/Time
Traveled:
74nm/0:32
Distance/Time
To Go:
Arrived

Flight Plot

Page will automatically refresh every two minutes.


Map Options




Map Legend


Flown Route
Filed Route
Departure Airport
Arrival Airport
Navaid (VOR, NDB)
Fix

Horizontal Profiles

Position Reports

Time Latitude Longitude Heading Altitude Ground
Speed
27-Nov-18 10:35 33.130043 -117.276866 167 298ft 0kts
27-Nov-18 10:36 33.130043 -117.276866 167 298ft 0kts
27-Nov-18 10:37 33.130043 -117.276866 167 298ft 0kts
27-Nov-18 10:38 33.130043 -117.276866 167 298ft 0kts
27-Nov-18 10:39 33.130043 -117.276866 167 298ft 0kts
27-Nov-18 10:40 33.130043 -117.276866 167 298ft 0kts
27-Nov-18 10:41 33.130043 -117.276866 167 298ft 0kts
27-Nov-18 10:42 33.130043 -117.276866 167 298ft 0kts
27-Nov-18 10:43 33.130043 -117.276866 167 298ft 0kts
27-Nov-18 10:44 33.130043 -117.276866 167 298ft 0kts
27-Nov-18 10:45 33.130043 -117.276866 167 298ft 0kts
27-Nov-18 10:46 33.130043 -117.276866 167 298ft 0kts
27-Nov-18 10:47 33.130043 -117.276866 167 298ft 0kts
27-Nov-18 10:48 33.130043 -117.276866 167 298ft 0kts
27-Nov-18 10:49 33.130043 -117.276866 167 298ft 0kts
27-Nov-18 10:50 33.130043 -117.276866 167 298ft 0kts
27-Nov-18 10:51 33.130043 -117.276866 167 298ft 0kts
27-Nov-18 10:52 33.130043 -117.276866 167 298ft 0kts
27-Nov-18 10:53 33.130043 -117.276866 167 298ft 0kts
27-Nov-18 10:54 33.130043 -117.276866 167 298ft 0kts
27-Nov-18 10:55 33.130115 -117.273732 78 298ft 18kts
27-Nov-18 10:56 33.130240 -117.272546 153 298ft 0kts
27-Nov-18 10:57 33.130198 -117.272526 161 298ft 3kts
27-Nov-18 10:58 33.126784 -117.290976 261 724ft 124kts
27-Nov-18 10:59 33.121669 -117.331014 262 2435ft 116kts
27-Nov-18 11:00 33.117289 -117.376458 262 2956ft 170kts
27-Nov-18 11:01 33.111348 -117.434881 263 2947ft 180kts
27-Nov-18 11:02 33.144136 -117.471941 325 3822ft 167kts
27-Nov-18 11:03 33.185922 -117.453901 29 4649ft 169kts
27-Nov-18 11:04 33.226891 -117.426679 26 5487ft 168kts
27-Nov-18 11:05 33.265441 -117.447879 317 5997ft 175kts
27-Nov-18 11:06 33.302130 -117.489522 316 5992ft 185kts
27-Nov-18 11:07 33.339359 -117.532788 315 5991ft 186kts
27-Nov-18 11:08 33.376352 -117.575961 315 5990ft 185kts
27-Nov-18 11:09 33.413388 -117.619309 315 5991ft 188kts
27-Nov-18 11:10 33.450518 -117.662801 314 5991ft 189kts
27-Nov-18 11:11 33.481800 -117.699468 315 5991ft 189kts
27-Nov-18 11:12 33.525832 -117.751130 315 5991ft 190kts
27-Nov-18 11:13 33.557249 -117.788021 315 5991ft 190kts
27-Nov-18 11:14 33.601453 -117.840042 315 6003ft 191kts
27-Nov-18 11:15 33.633009 -117.877217 315 5999ft 191kts
27-Nov-18 11:16 33.670852 -117.921849 315 5997ft 191kts
27-Nov-18 11:17 33.708839 -117.966683 315 5997ft 191kts
27-Nov-18 11:18 33.748850 -118.008328 330 5907ft 195kts
27-Nov-18 11:19 33.796147 -118.040851 330 5337ft 187kts
27-Nov-18 11:20 33.839545 -118.070761 331 5020ft 174kts
27-Nov-18 11:21 33.880832 -118.099238 331 5023ft 170kts
27-Nov-18 11:22 33.926451 -118.114933 321 4436ft 176kts
27-Nov-18 11:23 33.957184 -118.160112 293 3501ft 164kts
27-Nov-18 11:24 33.954829 -118.208544 264 3067ft 119kts
27-Nov-18 11:25 33.950981 -118.247379 263 2380ft 111kts
27-Nov-18 11:26 33.947407 -118.283011 263 1780ft 105kts
27-Nov-18 11:27 33.943935 -118.317532 263 1213ft 104kts
27-Nov-18 11:28 33.940337 -118.352238 264 648ft 104kts
27-Nov-18 11:29 33.937026 -118.385894 263 117ft 82kts
27-Nov-18 11:30 33.935327 -118.393713 174 106ft 0kts
27-Nov-18 11:31 33.934206 -118.394214 230 106ft 7kts

Navigation Log

Ident Type
Flight plan parsing failed, navigation log unavailable